Time;durP1;ratioP1;P1;durP2;ratioP2;P2;SDS_P1;SDS_P2;PMS_P1;PMS_P2;Temp;Humidity;BMP_temperature;BMP_pressure;BME280_temperature;BME280_humidity;BME280_pressure;Samples;Min_cycle;Max_cycle;Signal;HPM_P1;HPM_P2
2022/02/20 00:00:21;;;;;;;;;2.00;2.00;;;;;10.14;67.38;101305.25;5030277;28;45332;-87
2022/02/20 00:02:48;;;;;;;;;1.75;0.00;;;;;9.12;67.96;101120.38;5029484;28;45445;-87
2022/02/20 00:05:14;;;;;;;;;3.00;2.75;;;;;9.45;68.05;101172.56;5030069;28;46268;-89
2022/02/20 00:07:39;;;;;;;;;2.00;2.00;;;;;9.27;68.05;101139.44;5010727;28;45388;-88
2022/02/20 00:10:06;;;;;;;;;3.00;2.00;;;;;9.43;68.01;101163.75;5029594;28;45488;-88
2022/02/20 00:12:31;;;;;;;;;6.25;4.25;;;;;8.65;68.01;101024.69;5029857;28;45668;-86
2022/02/20 00:14:57;;;;;;;;;0.50;0.50;;;;;9.55;68.03;101173.06;5029092;28;46019;-88
2022/02/20 00:17:22;;;;;;;;;2.00;1.25;;;;;9.94;68.10;101237.78;5030450;28;45697;-90
2022/02/20 00:19:49;;;;;;;;;2.00;2.00;;;;;9.79;68.33;101210.03;5029841;28;45477;-89
2022/02/20 00:22:15;;;;;;;;;2.00;1.25;;;;;9.67;68.46;101195.47;5029680;28;45486;-90
2022/02/20 00:24:41;;;;;;;;;2.25;2.25;;;;;10.13;68.29;101271.94;5028997;28;46832;-89
2022/02/20 00:27:06;;;;;;;;;3.00;2.75;;;;;9.56;69.22;101168.75;5030665;28;45432;-89
2022/02/20 00:29:31;;;;;;;;;1.75;1.75;;;;;9.13;69.32;101093.34;5032929;28;45699;-88
2022/02/20 00:31:56;;;;;;;;;2.00;2.00;;;;;9.88;69.41;101211.28;5032413;28;45545;-87
2022/02/20 00:34:22;;;;;;;;;2.00;2.00;;;;;9.73;69.52;101203.59;5033422;28;46205;-87
2022/02/20 00:36:47;;;;;;;;;2.67;2.67;;;;;9.75;69.69;101199.31;5032568;28;45522;-88
2022/02/20 00:39:12;;;;;;;;;2.00;2.00;;;;;9.97;69.43;101237.94;5014890;28;45519;-89
2022/02/20 00:41:38;;;;;;;;;2.00;1.25;;;;;9.71;69.32;101193.06;5032701;28;45348;-89
2022/02/20 00:44:03;;;;;;;;;1.00;1.00;;;;;9.70;69.29;101180.72;5032543;28;45626;-90
2022/02/20 00:46:29;;;;;;;;;1.50;1.00;;;;;9.85;69.59;101219.91;5032534;28;45401;-88
2022/02/20 00:48:54;;;;;;;;;1.00;1.00;;;;;9.73;69.57;101186.13;5032506;28;45443;-86
2022/02/20 00:51:19;;;;;;;;;1.00;1.00;;;;;10.08;69.59;101247.19;5032992;28;45390;-86
2022/02/20 00:53:45;;;;;;;;;1.00;1.00;;;;;9.99;69.51;101231.03;5032071;28;46218;-84
2022/02/20 00:56:10;;;;;;;;;2.00;1.00;;;;;9.83;69.60;101214.59;5032604;28;45419;-87
2022/02/20 00:58:35;;;;;;;;;2.00;2.00;;;;;9.57;69.67;101155.69;5032778;28;45751;-89
2022/02/20 01:01:01;;;;;;;;;2.00;1.00;;;;;9.80;69.65;101187.28;5014104;28;45617;-89
2022/02/20 01:03:26;;;;;;;;;1.00;1.00;;;;;10.24;69.36;101268.06;5014549;28;46339;-85
2022/02/20 01:05:53;;;;;;;;;2.00;2.00;;;;;10.32;69.34;101274.59;5031930;28;45484;-88
2022/02/20 01:08:18;;;;;;;;;1.00;1.00;;;;;9.60;69.57;101133.03;5032419;28;45337;-88
2022/02/20 01:10:45;;;;;;;;;1.75;1.00;;;;;9.73;69.68;101159.00;5014200;28;45554;-90
2022/02/20 01:13:10;;;;;;;;;2.00;2.00;;;;;10.13;69.72;101231.63;5032189;28;46543;-86
2022/02/20 01:15:35;;;;;;;;;1.50;1.50;;;;;9.70;69.37;101143.97;5032037;28;45298;-87
2022/02/20 01:18:01;;;;;;;;;2.25;2.25;;;;;9.91;69.51;101183.44;5032534;28;45624;-90
2022/02/20 01:20:26;;;;;;;;;2.00;1.25;;;;;9.92;69.89;101203.59;5014464;28;45528;-88
2022/02/20 01:22:51;;;;;;;;;4.00;3.00;;;;;9.92;69.71;101192.22;5031219;28;45431;-87
2022/02/20 01:25:17;;;;;;;;;3.25;3.00;;;;;9.47;69.76;101110.59;5032272;28;45344;-89
2022/02/20 01:27:42;;;;;;;;;1.00;1.00;;;;;9.49;69.59;101114.19;5032099;28;45438;-85
2022/02/20 01:30:08;;;;;;;;;3.00;2.00;;;;;9.77;70.05;101153.94;5031904;28;45464;-88
2022/02/20 01:32:33;;;;;;;;;2.00;2.00;;;;;10.03;70.01;101214.56;5032164;28;46103;-92
2022/02/20 01:34:59;;;;;;;;;1.75;1.50;;;;;10.33;70.04;101254.47;5032731;28;45457;-91
2022/02/20 01:37:24;;;;;;;;;4.75;2.75;;;;;9.37;69.83;101085.69;5032588;28;45476;-89
2022/02/20 01:39:49;;;;;;;;;3.00;2.00;;;;;10.42;69.99;101272.34;5030590;28;45407;-85
2022/02/20 01:42:15;;;;;;;;;3.25;2.00;;;;;10.25;69.94;101255.88;5013843;28;48140;-89
2022/02/20 01:44:40;;;;;;;;;2.00;2.00;;;;;10.08;69.88;101218.31;5013331;28;45444;-89
2022/02/20 01:47:08;;;;;;;;;1.25;1.25;;;;;10.21;70.25;101243.41;5014106;28;45456;-87
2022/02/20 01:49:34;;;;;;;;;2.50;1.75;;;;;10.40;70.10;101280.19;5014364;28;45600;-87
2022/02/20 01:52:00;;;;;;;;;1.00;1.00;;;;;10.41;70.33;101305.63;5030727;28;45286;-89
2022/02/20 01:54:25;;;;;;;;;2.50;2.50;;;;;10.41;70.39;101281.09;5031658;28;45380;-89
2022/02/20 01:56:54;;;;;;;;;4.75;3.00;;;;;10.41;70.33;101278.44;5031353;28;45379;-88
2022/02/20 01:59:21;;;;;;;;;3.00;3.00;;;;;10.26;70.35;101258.56;5031759;28;45459;-88
2022/02/20 02:01:47;;;;;;;;;2.00;1.75;;;;;8.91;69.97;101009.28;5013536;28;48025;-87
2022/02/20 02:04:12;;;;;;;;;3.00;2.00;;;;;10.38;70.25;101257.28;5031889;28;45448;-87
2022/02/20 02:06:37;;;;;;;;;4.00;2.50;;;;;10.35;70.51;101276.47;5031248;28;45526;-87
2022/02/20 02:09:03;;;;;;;;;2.33;2.00;;;;;9.83;70.35;101180.47;5031038;28;45391;-90
2022/02/20 02:11:29;;;;;;;;;3.00;2.00;;;;;9.75;70.50;101158.25;5031458;28;45723;-89
2022/02/20 02:13:55;;;;;;;;;2.25;2.25;;;;;9.61;70.28;101145.34;5030664;28;45906;-89
2022/02/20 02:16:21;;;;;;;;;3.25;3.00;;;;;9.85;70.46;101203.25;5032053;28;45435;-89
2022/02/20 02:18:47;;;;;;;;;2.75;1.50;;;;;9.53;70.70;101143.25;5031346;28;45428;-87
2022/02/20 02:21:12;;;;;;;;;2.00;2.00;;;;;9.43;70.90;101158.50;5030924;28;45281;-90
2022/02/20 02:23:38;;;;;;;;;2.00;1.50;;;;;9.94;71.07;101248.31;5030848;28;45459;-88
2022/02/20 02:26:06;;;;;;;;;3.00;2.00;;;;;9.49;71.40;101182.38;5013240;28;45445;-89
2022/02/20 02:28:34;;;;;;;;;1.00;1.00;;;;;9.50;71.46;101186.81;5012999;28;46053;-89
2022/02/20 02:31:03;;;;;;;;;3.00;3.00;;;;;9.54;71.48;101202.75;5030641;28;45501;-88
2022/02/20 02:33:30;;;;;;;;;4.00;4.00;;;;;8.71;71.60;101053.78;5031028;28;45956;-87
2022/02/20 02:35:57;;;;;;;;;5.50;3.75;;;;;9.89;71.69;101252.44;5012298;28;45589;-88
2022/02/20 02:38:26;;;;;;;;;3.00;3.00;;;;;9.12;71.70;101128.25;5012926;28;45759;-84
2022/02/20 02:40:59;;;;;;;;;4.50;3.00;;;;;9.94;71.64;101257.06;5013073;28;46198;-86
2022/02/20 02:43:25;;;;;;;;;2.00;1.50;;;;;9.93;71.70;101257.00;5030667;28;45858;-86
2022/02/20 02:45:50;;;;;;;;;4.25;2.25;;;;;9.18;71.79;101136.41;5013092;28;45281;-88
2022/02/20 02:48:16;;;;;;;;;1.50;1.50;;;;;9.16;71.89;101126.66;5031510;28;45482;-87
2022/02/20 02:50:41;;;;;;;;;4.00;2.00;;;;;9.57;71.98;101207.28;5029701;28;45380;-88
2022/02/20 02:53:07;;;;;;;;;3.00;2.00;;;;;9.71;72.17;101242.91;5030502;28;45483;-88
2022/02/20 02:55:33;;;;;;;;;2.00;1.75;;;;;9.85;72.18;101267.16;5030410;28;46039;-89
2022/02/20 02:57:59;;;;;;;;;3.25;3.00;;;;;9.37;72.04;101197.59;5030367;28;45423;-89
2022/02/20 03:00:24;;;;;;;;;3.50;1.75;;;;;9.22;72.43;101171.53;5031079;28;45760;-84
2022/02/20 03:02:49;;;;;;;;;1.50;1.50;;;;;9.45;72.30;101230.28;5030464;28;45444;-88
2022/02/20 03:05:15;;;;;;;;;4.50;3.25;;;;;9.69;72.49;101278.69;5013066;28;45568;-87
2022/02/20 03:07:42;;;;;;;;;5.00;4.00;;;;;9.15;72.72;101201.81;5030200;28;45503;-88
2022/02/20 03:10:07;;;;;;;;;2.00;1.00;;;;;9.13;72.84;101200.84;5030298;28;46166;-88
2022/02/20 03:12:33;;;;;;;;;3.25;2.75;;;;;9.61;73.04;101289.66;5029996;28;45381;-88
2022/02/20 03:14:58;;;;;;;;;4.00;4.00;;;;;8.62;72.71;101118.91;5012493;28;45417;-88
2022/02/20 03:17:23;;;;;;;;;4.00;3.00;;;;;9.19;72.98;101216.84;5030958;28;45499;-88
2022/02/20 03:19:49;;;;;;;;;3.00;2.00;;;;;8.47;73.21;101081.44;5029816;28;45507;-89
2022/02/20 03:22:15;;;;;;;;;3.33;2.00;;;;;9.20;73.36;101226.50;5030399;28;45499;-89
2022/02/20 03:24:40;;;;;;;;;3.00;2.75;;;;;9.13;73.25;101202.56;5030194;28;45451;-87
2022/02/20 03:27:06;;;;;;;;;4.00;3.00;;;;;8.73;73.39;101150.84;5030339;28;45531;-87
2022/02/20 03:29:31;;;;;;;;;4.00;3.75;;;;;9.08;73.67;101210.22;5012167;28;47197;-87
2022/02/20 03:31:57;;;;;;;;;2.00;2.00;;;;;9.42;73.80;101280.91;5029943;28;45357;-88
2022/02/20 03:34:22;;;;;;;;;2.50;2.25;;;;;9.06;73.68;101214.47;5030854;28;45499;-89
2022/02/20 03:36:47;;;;;;;;;4.00;3.00;;;;;8.78;73.77;101163.34;5029909;28;45430;-87
2022/02/20 03:39:13;;;;;;;;;3.75;2.50;;;;;8.61;73.85;101137.13;5030093;28;46437;-88
2022/02/20 03:41:38;;;;;;;;;4.25;3.75;;;;;8.75;74.26;101164.91;5030430;28;46021;-88
2022/02/20 03:44:03;;;;;;;;;7.25;3.25;;;;;8.91;74.18;101192.75;5030087;28;45460;-87
2022/02/20 03:46:29;;;;;;;;;3.00;2.50;;;;;8.76;74.43;101183.31;5030318;28;45750;-86
2022/02/20 03:48:55;;;;;;;;;6.25;3.75;;;;;8.83;74.13;101181.03;5029832;28;45352;-89
2022/02/20 03:51:20;;;;;;;;;1.75;1.75;;;;;9.23;74.30;101237.16;5030116;28;45337;-89
2022/02/20 03:53:45;;;;;;;;;5.00;4.00;;;;;8.83;74.25;101165.31;5030036;28;45638;-87
2022/02/20 03:56:11;;;;;;;;;4.00;3.00;;;;;9.43;74.24;101281.81;5030376;28;45521;-88
2022/02/20 03:58:37;;;;;;;;;3.00;2.50;;;;;9.07;74.57;101212.78;5011732;28;47089;-89
2022/02/20 04:01:03;;;;;;;;;3.50;2.50;;;;;9.47;74.43;101275.88;5030253;28;45396;-88
2022/02/20 04:03:28;;;;;;;;;3.00;1.75;;;;;8.57;74.45;101112.53;5033521;28;45569;-87
2022/02/20 04:05:53;;;;;;;;;1.50;1.50;;;;;8.92;74.28;101155.25;5032643;28;45502;-88
2022/02/20 04:08:19;;;;;;;;;3.25;2.00;;;;;8.76;74.32;101122.16;5033450;28;46189;-90
2022/02/20 04:10:44;;;;;;;;;3.00;2.00;;;;;9.24;74.33;101201.34;5032890;28;45451;-89
2022/02/20 04:13:10;;;;;;;;;3.00;1.75;;;;;9.35;74.36;101210.59;5033125;28;45548;-89
2022/02/20 04:15:35;;;;;;;;;4.50;4.00;;;;;8.97;74.33;101140.66;5033724;28;45405;-88
2022/02/20 04:18:00;;;;;;;;;2.00;2.00;;;;;8.99;74.43;101136.34;5015135;28;48314;-90
2022/02/20 04:20:25;;;;;;;;;2.00;2.00;;;;;9.63;74.11;101256.50;5014967;28;45717;-90
2022/02/20 04:22:51;;;;;;;;;4.50;3.00;;;;;9.40;74.05;101216.06;5033915;28;45409;-87
2022/02/20 04:25:17;;;;;;;;;4.00;3.25;;;;;9.54;74.03;101247.38;5034231;28;45576;-90
2022/02/20 04:27:45;;;;;;;;;2.75;2.75;;;;;9.64;73.96;101256.56;5032848;28;46490;-85
2022/02/20 04:30:15;;;;;;;;;2.00;1.50;;;;;9.62;73.92;101262.59;5033383;28;45524;-89
2022/02/20 04:32:41;;;;;;;;;4.50;4.25;;;;;8.64;74.18;101090.13;5033314;28;45519;-88
2022/02/20 04:35:08;;;;;;;;;2.75;2.75;;;;;9.56;74.25;101271.09;5032995;28;45553;-88
2022/02/20 04:37:34;;;;;;;;;3.25;2.50;;;;;8.74;74.06;101139.53;5014441;28;47843;-88
2022/02/20 04:40:02;;;;;;;;;4.25;4.25;;;;;9.49;74.39;101276.84;5032476;28;45435;-90
2022/02/20 04:42:27;;;;;;;;;3.75;3.75;;;;;9.08;74.31;101211.94;5014829;28;45458;-88
2022/02/20 04:44:53;;;;;;;;;4.00;4.00;;;;;9.33;74.33;101238.50;5033046;28;45417;-85
2022/02/20 04:47:18;;;;;;;;;5.00;4.00;;;;;9.12;74.66;101208.66;5033229;28;46150;-89
2022/02/20 04:49:43;;;;;;;;;4.00;2.75;;;;;8.57;74.32;101102.06;5032304;28;45661;-89
2022/02/20 04:52:09;;;;;;;;;3.50;2.75;;;;;9.17;74.64;101197.53;5032888;28;46000;-89
2022/02/20 04:54:34;;;;;;;;;3.50;3.00;;;;;9.50;74.50;101234.94;5032811;28;45250;-87
2022/02/20 04:56:59;;;;;;;;;2.67;1.67;;;;;8.37;74.68;101032.97;5031812;28;45538;-88
2022/02/20 04:59:25;;;;;;;;;4.33;3.67;;;;;9.51;74.46;101227.97;5032996;28;45364;-89
2022/02/20 05:01:50;;;;;;;;;3.75;2.25;;;;;8.70;74.59;101074.69;5032872;28;45677;-85
2022/02/20 05:04:16;;;;;;;;;2.25;2.00;;;;;9.37;74.57;101201.09;5032805;28;45771;-85
2022/02/20 05:06:41;;;;;;;;;3.00;1.75;;;;;8.99;74.69;101129.38;5032303;28;46160;-88
2022/02/20 05:09:06;;;;;;;;;2.75;2.00;;;;;8.81;74.44;101101.41;5032297;28;45356;-89
2022/02/20 05:11:32;;;;;;;;;3.25;2.75;;;;;8.95;74.49;101108.19;5032312;28;45633;-89
2022/02/20 05:13:59;;;;;;;;;2.00;2.00;;;;;8.31;74.51;100988.13;5031936;28;45519;-88
2022/02/20 05:16:26;;;;;;;;;3.25;3.00;;;;;9.49;74.61;101188.53;5032395;28;45845;-89
2022/02/20 05:18:51;;;;;;;;;2.25;2.00;;;;;8.98;74.19;101100.50;5031362;28;45591;-86
2022/02/20 05:21:17;;;;;;;;;3.50;2.50;;;;;8.96;74.35;101104.75;5032276;28;45625;-91
2022/02/20 05:23:43;;;;;;;;;4.75;3.00;;;;;9.54;74.01;101213.25;5031957;28;45752;-86
2022/02/20 05:26:08;;;;;;;;;4.25;3.75;;;;;9.39;74.59;101180.19;5032206;28;46758;-87
2022/02/20 05:28:34;;;;;;;;;2.75;2.75;;;;;9.54;74.30;101181.78;5032431;28;45493;-86
2022/02/20 05:30:59;;;;;;;;;1.00;1.00;;;;;9.55;74.49;101174.78;5032399;28;45428;-90
2022/02/20 05:33:24;;;;;;;;;4.25;3.25;;;;;9.35;74.59;101139.78;5031976;28;45441;-86
2022/02/20 05:35:50;;;;;;;;;2.00;1.75;;;;;8.84;74.43;101070.13;5031397;28;45539;-83
2022/02/20 05:38:16;;;;;;;;;2.75;2.50;;;;;9.51;74.56;101184.28;5032215;28;45483;-90
2022/02/20 05:40:42;;;;;;;;;3.50;2.50;;;;;9.10;74.15;101115.88;5031629;28;45424;-84
2022/02/20 05:43:07;;;;;;;;;2.00;1.50;;;;;9.00;74.36;101096.19;5031881;28;45443;-88
2022/02/20 05:45:33;;;;;;;;;2.00;1.25;;;;;8.93;74.39;101084.53;5032072;28;46456;-89
2022/02/20 05:47:58;;;;;;;;;1.50;1.50;;;;;8.71;74.50;101042.44;5031365;28;45391;-86
2022/02/20 05:50:24;;;;;;;;;3.00;2.50;;;;;8.99;74.25;101102.28;5031762;28;45499;-87
2022/02/20 05:52:49;;;;;;;;;2.25;2.00;;;;;9.46;74.40;101179.66;5013511;28;45455;-85
2022/02/20 05:55:14;;;;;;;;;1.25;1.25;;;;;9.41;74.22;101174.19;5031694;28;45446;-87
2022/02/20 05:57:51;;;;;;;;;3.50;2.50;;;;;8.89;74.32;101068.59;5031399;28;45373;-89
2022/02/20 06:00:22;;;;;;;;;1.25;1.00;;;;;9.50;74.08;101189.44;5032577;28;45487;-87
2022/02/20 06:02:48;;;;;;;;;2.75;2.00;;;;;9.79;74.03;101231.03;5013035;28;45483;-88
2022/02/20 06:05:13;;;;;;;;;4.00;3.00;;;;;8.77;74.16;101043.63;5013829;28;46216;-89
2022/02/20 06:07:39;;;;;;;;;1.50;1.50;;;;;8.95;74.15;101089.84;5031012;28;45388;-88
2022/02/20 06:10:06;;;;;;;;;3.00;1.00;;;;;9.88;74.28;101238.44;5030864;28;45349;-85
2022/02/20 06:12:32;;;;;;;;;7.50;1.50;;;;;9.92;74.09;101234.22;5031154;28;45547;-86
2022/02/20 06:14:57;;;;;;;;;1.00;1.00;;;;;9.94;74.22;101237.78;5031278;28;45488;-87
2022/02/20 06:17:23;;;;;;;;;1.25;1.00;;;;;9.73;74.02;101188.75;5013223;28;45452;-89
2022/02/20 06:19:49;;;;;;;;;1.00;1.00;;;;;9.83;73.63;101184.81;5031402;28;45406;-90
2022/02/20 06:22:14;;;;;;;;;2.00;1.00;;;;;9.76;73.57;101156.50;5013501;28;45425;-88
2022/02/20 06:24:39;;;;;;;;;3.00;2.00;;;;;9.09;73.61;101049.44;5030474;28;46166;-86
2022/02/20 06:27:05;;;;;;;;;1.00;0.00;;;;;9.21;73.44;101063.13;5031325;28;45353;-90
2022/02/20 06:29:31;;;;;;;;;2.25;2.00;;;;;10.13;73.47;101214.16;5031266;28;45443;-89
2022/02/20 06:31:56;;;;;;;;;3.00;2.50;;;;;9.27;73.40;101063.38;5012954;28;45545;-89
2022/02/20 06:34:22;;;;;;;;;3.00;2.00;;;;;9.66;73.50;101113.22;5031136;28;45439;-89
2022/02/20 06:36:47;;;;;;;;;3.33;2.00;;;;;9.53;73.50;101077.66;5012707;28;45696;-88
2022/02/20 06:39:12;;;;;;;;;2.50;2.50;;;;;9.02;73.41;101000.19;5031859;28;45384;-91
2022/02/20 06:41:38;;;;;;;;;2.25;1.50;;;;;9.99;73.49;101168.91;5030942;28;45324;-88
2022/02/20 06:44:05;;;;;;;;;3.50;2.25;;;;;9.84;73.24;101157.72;5031227;28;45870;-90
2022/02/20 06:46:31;;;;;;;;;3.50;2.75;;;;;10.17;73.27;101216.09;5031418;28;45480;-87
2022/02/20 06:48:56;;;;;;;;;3.00;1.25;;;;;9.79;73.47;101143.50;5030875;28;45452;-89
2022/02/20 06:51:21;;;;;;;;;4.50;3.25;;;;;9.32;73.30;101053.09;5031071;28;45404;-88
2022/02/20 06:53:47;;;;;;;;;2.00;2.00;;;;;9.98;73.44;101168.84;5030236;28;45484;-89
2022/02/20 06:56:12;;;;;;;;;2.00;1.25;;;;;9.91;73.71;101143.16;5012916;28;45431;-89
2022/02/20 06:58:38;;;;;;;;;2.00;2.00;;;;;9.33;73.49;101025.16;5012980;28;45493;-88
2022/02/20 07:01:03;;;;;;;;;2.50;2.00;;;;;9.07;73.91;100984.66;5013178;28;45802;-91
2022/02/20 07:03:29;;;;;;;;;2.00;1.67;;;;;9.84;73.59;101123.59;5012359;28;47314;-88
2022/02/20 07:05:54;;;;;;;;;3.00;3.00;;;;;9.83;73.53;101140.19;5012915;28;45306;-88
2022/02/20 07:08:19;;;;;;;;;5.00;2.00;;;;;9.83;73.44;101141.09;5031280;28;45447;-87
2022/02/20 07:10:45;;;;;;;;;2.25;2.00;;;;;9.41;73.49;101042.09;5029333;28;45603;-88
2022/02/20 07:13:10;;;;;;;;;4.00;3.25;;;;;10.02;73.68;101145.41;5029653;28;45551;-89
2022/02/20 07:15:36;;;;;;;;;1.75;1.00;;;;;10.14;73.56;101173.91;5029200;28;45354;-88
2022/02/20 07:18:01;;;;;;;;;2.00;2.00;;;;;9.91;73.21;101153.66;5030330;28;45301;-87
2022/02/20 07:20:26;;;;;;;;;2.50;1.25;;;;;10.11;73.28;101197.44;5011945;28;45569;-86
2022/02/20 07:22:52;;;;;;;;;2.00;2.00;;;;;9.55;73.44;101094.34;5010418;28;48624;-85
2022/02/20 07:25:18;;;;;;;;;8.00;4.50;;;;;9.97;73.30;101177.56;5011171;28;45499;-87
2022/02/20 07:27:45;;;;;;;;;3.00;2.00;;;;;10.23;73.31;101216.34;5011238;28;45533;-91
2022/02/20 07:30:12;;;;;;;;;4.50;3.25;;;;;10.00;73.47;101178.59;5011342;28;45883;-88
2022/02/20 07:32:38;;;;;;;;;1.25;1.00;;;;;10.48;73.47;101251.59;5010740;28;48089;-88
2022/02/20 07:35:05;;;;;;;;;2.50;2.25;;;;;9.91;73.33;101145.78;5028994;28;45457;-87
2022/02/20 07:37:31;;;;;;;;;2.50;2.50;;;;;9.91;73.20;101116.91;5031187;28;45624;-87
2022/02/20 07:39:57;;;;;;;;;3.50;2.00;;;;;9.88;73.31;101112.41;5032605;28;45512;-85
2022/02/20 07:42:23;;;;;;;;;2.50;1.25;;;;;9.15;73.01;101002.50;5015225;28;47615;-90
2022/02/20 07:44:48;;;;;;;;;3.25;2.00;;;;;9.65;72.95;101079.91;5032839;28;45577;-88
2022/02/20 07:47:14;;;;;;;;;2.50;2.00;;;;;10.06;73.18;101125.44;5032910;28;45439;-90
2022/02/20 07:49:39;;;;;;;;;2.00;2.00;;;;;9.90;72.83;101096.72;5032915;28;45476;-89
2022/02/20 07:52:05;;;;;;;;;2.33;2.00;;;;;10.23;72.94;101155.94;5032042;28;45511;-88
2022/02/20 07:54:31;;;;;;;;;4.00;2.50;;;;;10.54;72.77;101225.56;5014792;28;45470;-88
2022/02/20 07:56:56;;;;;;;;;3.50;3.00;;;;;10.27;72.63;101168.41;5032760;28;45491;-87
2022/02/20 07:59:22;;;;;;;;;1.00;1.00;;;;;10.50;72.67;101221.03;5032740;28;45471;-87
2022/02/20 08:01:48;;;;;;;;;2.75;1.25;;;;;9.98;72.66;101132.97;5031763;28;45436;-83
2022/02/20 08:04:17;;;;;;;;;2.75;2.25;;;;;10.26;72.49;101173.59;5032670;28;45450;-90
2022/02/20 08:06:42;;;;;;;;;2.00;1.50;;;;;10.36;72.63;101195.91;5031959;28;45486;-88
2022/02/20 08:09:07;;;;;;;;;2.25;1.75;;;;;10.78;72.52;101262.50;5032142;28;45329;-89
2022/02/20 08:11:33;;;;;;;;;5.00;3.50;;;;;10.24;72.19;101164.72;4975687;28;1113920;-86
2022/02/20 08:13:59;;;;;;;;;4.25;3.00;;;;;11.04;72.39;101308.31;5032926;28;45365;-83
2022/02/20 08:16:26;;;;;;;;;4.25;2.00;;;;;10.70;72.17;101232.38;5015633;28;45485;-86
2022/02/20 08:18:51;;;;;;;;;3.50;3.25;;;;;10.95;72.39;101242.19;5014970;28;45642;-87
2022/02/20 08:21:16;;;;;;;;;4.25;2.50;;;;;10.66;72.16;101160.38;5015207;28;48304;-85
2022/02/20 08:23:42;;;;;;;;;1.50;1.00;;;;;10.20;71.83;101074.38;5032273;28;45540;-84
2022/02/20 08:26:08;;;;;;;;;3.00;2.00;;;;;10.56;71.85;101134.56;5033254;28;45373;-85
2022/02/20 08:28:33;;;;;;;;;4.75;3.00;;;;;10.67;72.26;101183.19;5033171;28;45594;-86
2022/02/20 08:30:59;;;;;;;;;4.00;3.75;;;;;10.58;72.16;101175.81;5032551;28;46356;-86
2022/02/20 08:33:24;;;;;;;;;3.00;3.00;;;;;10.88;72.03;101193.69;5033795;28;45682;-87
2022/02/20 08:35:50;;;;;;;;;5.50;3.00;;;;;11.31;71.86;101258.53;5014928;28;45404;-87
2022/02/20 08:38:20;;;;;;;;;3.00;2.50;;;;;11.05;71.73;101186.50;5032654;28;45552;-83
2022/02/20 08:40:46;;;;;;;;;5.75;4.75;;;;;10.25;71.51;101022.97;5032085;28;45569;-87
2022/02/20 08:43:11;;;;;;;;;5.00;2.00;;;;;10.95;71.41;101142.25;5033100;28;45916;-84
2022/02/20 08:45:36;;;;;;;;;4.00;3.00;;;;;11.37;71.22;101191.25;5032251;28;45471;-88
2022/02/20 08:48:02;;;;;;;;;3.25;2.00;;;;;11.00;71.07;101131.06;5032295;28;45550;-86
2022/02/20 08:50:27;;;;;;;;;4.00;3.25;;;;;10.54;70.87;101050.41;5049479;28;45562;-85
2022/02/20 08:52:53;;;;;;;;;6.00;3.00;;;;;10.79;70.76;101089.06;5057099;28;45614;-87
2022/02/20 08:55:18;;;;;;;;;3.00;2.00;;;;;11.41;71.15;101204.53;5057407;28;45084;-89
2022/02/20 08:57:44;;;;;;;;;5.25;4.25;;;;;11.72;70.92;101235.56;5059076;28;44857;-91
2022/02/20 09:00:11;;;;;;;;;1.75;1.50;;;;;11.55;70.72;101206.84;5059388;28;45451;-88
2022/02/20 09:02:37;;;;;;;;;3.00;2.25;;;;;11.70;70.81;101227.59;5058247;28;45089;-88
2022/02/20 09:05:02;;;;;;;;;2.50;2.25;;;;;11.37;70.70;101154.41;5058902;28;45228;-86
2022/02/20 09:07:28;;;;;;;;;3.75;3.00;;;;;11.32;71.02;101134.03;5040278;28;45030;-86
2022/02/20 09:09:53;;;;;;;;;2.75;2.50;;;;;11.72;70.59;101231.19;5056529;28;45562;-88
2022/02/20 09:12:19;;;;;;;;;3.25;3.25;;;;;11.19;70.45;101140.56;5059304;28;44832;-87
2022/02/20 09:14:44;;;;;;;;;3.00;2.00;;;;;11.11;70.78;101149.91;5059850;28;44762;-86
2022/02/20 09:17:10;;;;;;;;;3.25;3.00;;;;;10.80;70.63;101075.06;5059703;28;45371;-86
2022/02/20 09:19:35;;;;;;;;;2.00;1.00;;;;;11.46;70.95;101195.97;5028580;28;47035;-86
2022/02/20 09:22:00;;;;;;;;;5.00;4.00;;;;;11.67;70.35;101224.84;5025823;28;45333;-89
2022/02/20 09:24:26;;;;;;;;;3.00;2.25;;;;;11.16;70.72;101124.66;5025155;28;45724;-87
2022/02/20 09:26:51;;;;;;;;;3.25;2.75;;;;;11.32;70.81;101161.22;5041251;28;45815;-86
2022/02/20 09:29:17;;;;;;;;;1.25;1.25;;;;;11.17;70.99;101136.97;5044601;28;45439;-87
2022/02/20 09:31:44;;;;;;;;;3.75;3.25;;;;;11.10;70.99;101127.06;5038040;28;45397;-87
2022/02/20 09:34:09;;;;;;;;;2.00;2.00;;;;;11.30;71.26;101173.44;5041706;28;45487;-88
2022/02/20 09:36:35;;;;;;;;;4.00;3.00;;;;;11.59;71.30;101211.41;5041758;28;45325;-87
2022/02/20 09:39:00;;;;;;;;;4.00;2.50;;;;;11.60;71.32;101214.94;5039579;28;46416;-87
2022/02/20 09:41:31;;;;;;;;;4.00;2.00;;;;;11.34;71.21;101164.84;5041769;28;45443;-87
2022/02/20 09:43:59;;;;;;;;;1.00;0.25;;;;;11.34;71.21;101135.88;5035769;28;45395;-90
2022/02/20 09:46:28;;;;;;;;;4.25;3.00;;;;;11.15;71.01;101083.41;5031988;28;45534;-88
2022/02/20 09:48:55;;;;;;;;;2.00;1.50;;;;;11.99;70.73;101191.84;5031818;28;46124;-89
2022/02/20 09:51:20;;;;;;;;;4.00;3.00;;;;;12.06;70.88;101185.03;5032094;28;45809;-90
2022/02/20 09:53:46;;;;;;;;;3.00;2.00;;;;;11.59;70.65;101092.06;5030904;28;45480;-88
2022/02/20 09:56:13;;;;;;;;;4.50;2.50;;;;;11.60;70.38;101088.56;5032017;28;45605;-90
2022/02/20 09:58:38;;;;;;;;;2.00;1.75;;;;;11.88;70.21;101104.53;5013290;28;47545;-88
2022/02/20 10:01:05;;;;;;;;;1.75;1.25;;;;;12.30;70.15;101170.09;5012490;28;45356;-88
2022/02/20 10:03:33;;;;;;;;;3.75;2.75;;;;;12.34;69.78;101156.19;5031448;28;45506;-83
2022/02/20 10:06:01;;;;;;;;;2.00;2.00;;;;;11.95;69.74;101097.75;5031584;28;45477;-86
2022/02/20 10:08:47;;;;;;;;;3.00;2.00;;;;;11.77;69.83;101047.03;5031014;28;46281;-89
2022/02/20 10:11:18;;;;;;;;;4.25;2.75;;;;;12.83;69.32;101189.44;5030596;28;45385;-90
2022/02/20 10:13:45;;;;;;;;;2.75;1.00;;;;;12.81;68.56;101162.13;5013322;28;45507;-84
2022/02/20 10:16:23;;;;;;;;;4.00;2.00;;;;;12.95;68.11;101183.66;5031004;28;45374;-90
2022/02/20 10:18:52;;;;;;;;;1.25;1.25;;;;;12.89;67.65;101165.00;5031129;28;46344;-84
2022/02/20 10:21:23;;;;;;;;;2.00;0.75;;;;;13.09;67.94;101192.00;5031188;28;45650;-85
2022/02/20 10:23:49;;;;;;;;;2.00;1.00;;;;;12.93;67.52;101144.91;5030704;28;45295;-88
2022/02/20 10:26:19;;;;;;;;;2.50;1.50;;;;;13.27;67.60;101197.03;5031720;28;45488;-87
2022/02/20 10:29:08;;;;;;;;;1.00;1.00;;;;;13.37;67.17;101175.31;5030230;28;46335;-85
2022/02/20 10:31:54;;;;;;;;;1.00;1.00;;;;;13.81;66.72;101189.84;5012923;28;45896;-86
2022/02/20 10:34:23;;;;;;;;;2.00;0.50;;;;;13.90;65.80;101171.59;5031245;28;45326;-86
2022/02/20 10:36:56;;;;;;;;;3.75;1.00;;;;;13.94;65.52;101170.84;5011883;28;45493;-88
2022/02/20 10:39:31;;;;;;;;;0.75;0.50;;;;;13.41;65.10;101068.97;5030776;28;45591;-85
2022/02/20 10:42:09;;;;;;;;;3.00;1.75;;;;;14.07;64.91;101184.38;5030182;28;45302;-85
2022/02/20 10:45:00;;;;;;;;;1.50;1.00;;;;;13.80;64.02;101137.84;5030203;28;45530;-83
2022/02/20 10:47:30;;;;;;;;;3.50;2.50;;;;;13.54;64.25;101108.03;5031194;28;46046;-85
2022/02/20 10:50:15;;;;;;;;;2.00;1.00;;;;;13.73;64.11;101140.25;5030435;28;45242;-85
2022/02/20 10:52:40;;;;;;;;;3.25;3.25;;;;;13.42;64.55;101082.19;5011588;28;45234;-85
2022/02/20 10:55:10;;;;;;;;;5.00;4.00;;;;;14.19;63.90;101198.84;5030855;28;45357;-90
2022/02/20 10:57:38;;;;;;;;;2.00;2.00;;;;;13.86;63.73;101126.56;5030423;28;45503;-85
2022/02/20 11:00:11;;;;;;;;;3.00;3.00;;;;;14.24;63.97;101185.75;5029925;28;45682;-88
2022/02/20 11:02:36;;;;;;;;;3.75;2.00;;;;;13.86;63.36;101121.28;5030345;28;45387;-86
2022/02/20 11:05:03;;;;;;;;;2.50;2.50;;;;;13.93;63.30;101134.66;5012084;28;45512;-88
2022/02/20 11:07:28;;;;;;;;;2.25;2.00;;;;;14.20;63.44;101173.28;5029828;28;45645;-84
2022/02/20 11:09:54;;;;;;;;;3.75;2.00;;;;;14.28;63.09;101174.38;5029851;28;46562;-90
2022/02/20 11:12:21;;;;;;;;;2.00;2.00;;;;;13.86;62.87;101089.56;5030319;28;45526;-82
2022/02/20 11:14:49;;;;;;;;;3.75;2.25;;;;;13.89;63.23;101079.97;5011805;28;45461;-90
2022/02/20 11:17:21;;;;;;;;;3.00;3.00;;;;;13.86;63.23;101094.84;5030594;28;45610;-88
2022/02/20 11:19:48;;;;;;;;;4.25;3.00;;;;;13.87;62.80;101094.88;5011797;28;47531;-86
2022/02/20 11:22:16;;;;;;;;;3.75;2.50;;;;;13.92;62.82;101097.66;5029755;28;45825;-88
2022/02/20 11:24:46;;;;;;;;;3.75;2.00;;;;;14.17;62.60;101128.25;5030212;28;45456;-84